createdAt,value
2022-09-03T00:00:25.691Z,101417.63
2022-09-03T00:03:23.038Z,101417.09
2022-09-03T00:06:08.182Z,101417.28
2022-09-03T00:08:55.559Z,101415.81
2022-09-03T00:11:32.405Z,101412.34
2022-09-03T00:14:06.176Z,101413.19
2022-09-03T00:16:49.855Z,101417.78
2022-09-03T00:19:21.555Z,101411.47
2022-09-03T00:21:56.349Z,101414.66
2022-09-03T00:24:28.182Z,101412.97
2022-09-03T00:27:00.795Z,101418.63
2022-09-03T00:30:00.326Z,101418.91
2022-09-03T00:32:40.325Z,101420.53
2022-09-03T00:35:14.436Z,101421.69
2022-09-03T00:37:42.044Z,101419.13
2022-09-03T00:40:23.784Z,101413.16
2022-09-03T00:42:59.608Z,101414.91
2022-09-03T00:46:13.279Z,101416.34
2022-09-03T00:48:59.803Z,101405.19
2022-09-03T00:51:50.754Z,101404.44
2022-09-03T00:54:35.684Z,101413.50
2022-09-03T00:57:14.638Z,101401.38
2022-09-03T01:00:11.157Z,101407.50
2022-09-03T01:03:08.089Z,101406.53
2022-09-03T01:05:43.817Z,101405.53
2022-09-03T01:08:18.844Z,101397.53
2022-09-03T01:10:57.211Z,101403.06
2022-09-03T01:13:50.763Z,101394.63
2022-09-03T01:16:51.948Z,101398.59
2022-09-03T01:19:39.065Z,101398.88
2022-09-03T01:22:38.606Z,101390.66
2022-09-03T01:25:17.662Z,101392.56
2022-09-03T01:28:03.050Z,101400.72
2022-09-03T01:30:33.863Z,101395.84
2022-09-03T01:33:31.627Z,101389.19
2022-09-03T01:36:07.930Z,101390.88
2022-09-03T01:38:51.188Z,101392.03
2022-09-03T01:42:04.993Z,101391.72
2022-09-03T01:44:55.655Z,101390.31
2022-09-03T01:47:52.372Z,101393.13
2022-09-03T01:50:34.882Z,101397.59
2022-09-03T01:53:19.393Z,101393.19
2022-09-03T01:56:42.941Z,101389.56
2022-09-03T01:59:33.457Z,101393.34
2022-09-03T02:02:08.585Z,101394.75
2022-09-03T02:04:35.548Z,101393.53
2022-09-03T02:07:03.546Z,101392.22
2022-09-03T02:09:32.469Z,101389.59
2022-09-03T02:12:08.965Z,101395.91
2022-09-03T02:14:36.250Z,101387.81
2022-09-03T02:17:05.672Z,101393.09
2022-09-03T02:19:34.521Z,101387.31
2022-09-03T02:22:01.204Z,101386.78
2022-09-03T02:24:28.607Z,101396.69
2022-09-03T02:26:56.184Z,101392.38
2022-09-03T02:29:23.916Z,101390.97
2022-09-03T02:31:50.837Z,101385.78
2022-09-03T02:34:17.705Z,101393.22
2022-09-03T02:36:47.327Z,101388.72
2022-09-03T02:39:15.500Z,101390.59
2022-09-03T02:41:42.528Z,101387.63
2022-09-03T02:44:18.401Z,101393.19
2022-09-03T02:46:51.902Z,101392.09
2022-09-03T02:49:18.630Z,101390.50
2022-09-03T02:51:45.878Z,101393.22
2022-09-03T02:54:16.734Z,101392.78
2022-09-03T02:56:48.384Z,101400.94
2022-09-03T02:59:15.201Z,101393.97
2022-09-03T03:01:42.009Z,101390.50
2022-09-03T03:04:08.812Z,101390.03
2022-09-03T03:06:35.788Z,101384.75
2022-09-03T03:09:06.085Z,101386.75
2022-09-03T03:11:33.309Z,101382.44
2022-09-03T03:14:00.009Z,101389.38
2022-09-03T03:16:26.781Z,101390.03
2022-09-03T03:18:53.524Z,101395.59
2022-09-03T03:21:20.309Z,101391.66
2022-09-03T03:23:47.026Z,101397.72
2022-09-03T03:26:18.533Z,101400.94
2022-09-03T03:28:46.923Z,101401.41
2022-09-03T03:31:16.416Z,101403.16
2022-09-03T03:33:43.705Z,101406.25
2022-09-03T03:36:15.806Z,101403.81
2022-09-03T03:38:44.369Z,101404.47
2022-09-03T03:41:15.839Z,101416.00
2022-09-03T03:43:43.076Z,101421.25
2022-09-03T03:46:10.871Z,101408.88
2022-09-03T03:48:39.228Z,101408.97
2022-09-03T03:51:08.661Z,101420.31
2022-09-03T03:53:36.552Z,101419.00
2022-09-03T03:56:06.788Z,101407.66
2022-09-03T03:58:34.716Z,101409.28
2022-09-03T04:01:09.764Z,101406.53
2022-09-03T04:03:37.531Z,101409.44
2022-09-03T04:06:05.589Z,101404.75
2022-09-03T04:08:36.649Z,101409.34
2022-09-03T04:11:06.403Z,101404.00
2022-09-03T04:13:39.156Z,101406.72
2022-09-03T04:16:14.340Z,101414.03
2022-09-03T04:18:41.977Z,101405.25
2022-09-03T04:21:17.680Z,101403.44
2022-09-03T04:23:46.290Z,101399.03
2022-09-03T04:26:15.712Z,101402.03
2022-09-03T04:28:42.360Z,101405.59
2022-09-03T04:31:11.774Z,101401.84
2022-09-03T04:33:39.726Z,101407.28
2022-09-03T04:36:10.664Z,101408.31
2022-09-03T04:38:40.535Z,101403.06
2022-09-03T04:41:09.533Z,101405.34
2022-09-03T04:43:36.881Z,101400.16
2022-09-03T04:46:16.090Z,101397.16
2022-09-03T04:48:51.541Z,101399.13
2022-09-03T04:51:24.236Z,101395.97
2022-09-03T04:53:59.839Z,101399.59
2022-09-03T04:56:33.564Z,101408.59
2022-09-03T04:59:02.697Z,101405.50
2022-09-03T05:01:32.529Z,101401.63
2022-09-03T05:04:00.234Z,101401.09
2022-09-03T05:06:27.841Z,101403.91
2022-09-03T05:08:55.717Z,101405.09
2022-09-03T05:11:23.368Z,101401.63
2022-09-03T05:13:51.621Z,101406.38
2022-09-03T05:16:19.327Z,101407.31
2022-09-03T05:18:47.028Z,101419.34
2022-09-03T05:21:16.629Z,101417.41
2022-09-03T05:23:47.094Z,101420.16
2022-09-03T05:26:20.269Z,101414.88
2022-09-03T05:28:48.073Z,101424.19
2022-09-03T05:31:18.098Z,101415.16
2022-09-03T05:33:50.703Z,101414.75
2022-09-03T05:36:20.807Z,101414.38
2022-09-03T05:38:47.800Z,101419.22
2022-09-03T05:41:15.735Z,101417.44
2022-09-03T05:43:43.204Z,101419.84
2022-09-03T05:46:12.450Z,101413.56
2022-09-03T05:48:40.786Z,101419.00
2022-09-03T05:51:13.740Z,101418.19
2022-09-03T05:53:41.117Z,101417.47
2022-09-03T05:56:13.346Z,101418.19
2022-09-03T05:58:42.031Z,101427.25
2022-09-03T06:01:18.029Z,101427.72
2022-09-03T06:03:46.644Z,101420.03
2022-09-03T06:06:14.333Z,101416.34
2022-09-03T06:08:42.484Z,101419.81
2022-09-03T06:11:09.467Z,101419.47
2022-09-03T06:13:36.494Z,101419.34
2022-09-03T06:16:06.228Z,101425.47
2022-09-03T06:18:33.361Z,101418.81
2022-09-03T06:21:05.801Z,101415.56
2022-09-03T06:23:34.375Z,101415.69
2022-09-03T06:26:11.905Z,101418.19
2022-09-03T06:28:46.099Z,101423.22
2022-09-03T06:31:16.389Z,101425.91
2022-09-03T06:33:44.151Z,101421.47
2022-09-03T06:36:13.531Z,101428.34
2022-09-03T06:38:40.946Z,101429.31
2022-09-03T06:41:12.277Z,101435.63
2022-09-03T06:43:41.273Z,101438.16
2022-09-03T06:46:16.787Z,101435.72
2022-09-03T06:48:45.650Z,101442.47
2022-09-03T06:51:22.168Z,101434.44
2022-09-03T06:53:51.636Z,101440.97
2022-09-03T06:56:23.520Z,101435.56
2022-09-03T06:58:50.616Z,101439.53
2022-09-03T07:01:25.958Z,101429.50
2022-09-03T07:03:58.045Z,101437.94
2022-09-03T07:06:27.454Z,101436.59
2022-09-03T07:08:54.661Z,101434.97
2022-09-03T07:11:24.140Z,101438.00
2022-09-03T07:13:52.084Z,101435.34
2022-09-03T07:16:24.557Z,101438.50
2022-09-03T07:18:51.676Z,101438.88
2022-09-03T07:21:21.476Z,101440.47
2022-09-03T07:23:49.380Z,101436.84
2022-09-03T07:26:28.457Z,101446.47
2022-09-03T07:28:55.208Z,101446.72
2022-09-03T07:31:26.564Z,101445.09
2022-09-03T07:33:57.345Z,101450.84
2022-09-03T07:36:26.301Z,101444.00
2022-09-03T07:38:56.892Z,101452.88
2022-09-03T07:41:28.493Z,101452.16
2022-09-03T07:43:57.207Z,101454.44
2022-09-03T07:46:26.710Z,101445.97
2022-09-03T07:48:54.572Z,101444.94
2022-09-03T07:51:26.744Z,101446.84
2022-09-03T07:53:56.233Z,101449.94
2022-09-03T07:56:23.556Z,101453.47
2022-09-03T07:58:50.659Z,101455.53
2022-09-03T08:01:19.959Z,101449.53
2022-09-03T08:03:49.154Z,101447.88
2022-09-03T08:06:17.453Z,101453.19
2022-09-03T08:08:47.440Z,101456.59
2022-09-03T08:11:17.230Z,101460.75
2022-09-03T08:14:02.910Z,101453.91
2022-09-03T08:16:35.020Z,101452.47
2022-09-03T08:19:01.768Z,101443.81
2022-09-03T08:21:28.771Z,101448.28
2022-09-03T08:24:02.719Z,101445.13
2022-09-03T08:26:34.632Z,101449.25
2022-09-03T08:29:01.256Z,101440.59
2022-09-03T08:31:29.416Z,101444.34
2022-09-03T08:33:59.013Z,101449.06
2022-09-03T08:36:31.168Z,101444.44
2022-09-03T08:39:08.195Z,101443.59
2022-09-03T08:41:52.732Z,101437.78
2022-09-03T08:44:48.294Z,101435.25
2022-09-03T08:47:52.429Z,101424.88
2022-09-03T08:50:40.557Z,101432.22
2022-09-03T08:53:14.320Z,101423.91
2022-09-03T08:56:23.143Z,101418.53
2022-09-03T08:58:49.946Z,101428.06
2022-09-03T09:01:38.678Z,101427.19
2022-09-03T09:04:35.159Z,101414.16
2022-09-03T09:07:31.824Z,101425.97
2022-09-03T09:10:18.356Z,101414.72
2022-09-03T09:12:57.196Z,101421.41
2022-09-03T09:15:39.351Z,101413.56
2022-09-03T09:18:31.047Z,101414.78
2022-09-03T09:21:03.761Z,101418.78
2022-09-03T09:23:38.321Z,101417.97
2022-09-03T09:26:10.410Z,101409.03
2022-09-03T09:28:39.002Z,101408.22
2022-09-03T09:31:12.633Z,101405.19
2022-09-03T09:33:39.362Z,101399.47
2022-09-03T09:36:09.867Z,101403.38
2022-09-03T09:38:38.927Z,101388.28
2022-09-03T09:41:20.283Z,101389.63
2022-09-03T09:43:48.331Z,101384.91
2022-09-03T09:46:20.645Z,101393.56
2022-09-03T09:48:53.576Z,101388.63
2022-09-03T09:51:26.368Z,101387.31
2022-09-03T09:54:03.760Z,101394.91
2022-09-03T09:56:30.933Z,101393.50
2022-09-03T09:59:09.519Z,101383.81
2022-09-03T10:01:47.753Z,101383.09
2022-09-03T10:04:32.388Z,101384.66
2022-09-03T10:07:24.645Z,101371.97
2022-09-03T10:10:13.120Z,101369.34
2022-09-03T10:12:59.626Z,101369.97
2022-09-03T10:15:36.297Z,101370.22
2022-09-03T10:18:28.278Z,101368.97
2022-09-03T10:21:06.307Z,101371.78
2022-09-03T10:24:00.146Z,101373.06
2022-09-03T10:26:33.092Z,101366.78
2022-09-03T10:29:02.673Z,101358.25
2022-09-03T10:31:36.947Z,101365.69
2022-09-03T10:34:14.250Z,101355.44
2022-09-03T10:36:55.914Z,101364.81
2022-09-03T10:39:43.256Z,101357.06
2022-09-03T10:42:39.875Z,101346.75
2022-09-03T10:45:30.972Z,101360.72
2022-09-03T10:48:22.385Z,101355.31
2022-09-03T10:51:04.941Z,101350.72
2022-09-03T10:54:13.058Z,101350.09
2022-09-03T10:56:59.875Z,101344.25
2022-09-03T10:59:36.724Z,101340.13
2022-09-03T11:02:03.420Z,101344.22
2022-09-03T11:04:51.918Z,101336.78
2022-09-03T11:07:23.470Z,101343.19
2022-09-03T11:09:52.768Z,101337.03
2022-09-03T11:12:25.483Z,101325.19
2022-09-03T11:15:01.718Z,101329.78
2022-09-03T11:17:56.949Z,101333.72
2022-09-03T11:20:25.716Z,101328.22
2022-09-03T11:23:00.165Z,101323.41
2022-09-03T11:25:34.550Z,101329.66
2022-09-03T11:28:19.551Z,101329.41
2022-09-03T11:31:13.733Z,101309.22
2022-09-03T11:33:54.941Z,101308.47
2022-09-03T11:36:30.384Z,101311.66
2022-09-03T11:38:57.173Z,101308.66
2022-09-03T11:41:31.925Z,101308.13
2022-09-03T11:44:03.880Z,101307.66
2022-09-03T11:46:31.811Z,101307.47
2022-09-03T11:49:27.575Z,101293.34
2022-09-03T11:52:12.316Z,101306.66
2022-09-03T11:54:47.126Z,101308.94
2022-09-03T11:57:16.505Z,101298.78
2022-09-03T11:59:44.589Z,101289.56
2022-09-03T12:02:31.280Z,101293.84
2022-09-03T12:05:17.082Z,101295.19
2022-09-03T12:07:49.440Z,101292.78
2022-09-03T12:10:34.231Z,101287.41
2022-09-03T12:13:19.139Z,101285.31
2022-09-03T12:16:21.868Z,101289.22
2022-09-03T12:18:53.061Z,101276.75
2022-09-03T12:21:21.138Z,101281.31
2022-09-03T12:23:50.071Z,101272.38
2022-09-03T12:26:27.645Z,101278.66
2022-09-03T12:28:57.434Z,101276.06
2022-09-03T12:31:29.972Z,101270.06
2022-09-03T12:33:59.210Z,101272.84
2022-09-03T12:36:35.983Z,101272.13
2022-09-03T12:39:15.063Z,101278.56
2022-09-03T12:41:54.309Z,101268.69
2022-09-03T12:44:36.078Z,101262.44
2022-09-03T12:50:04.867Z,101254.94
2022-09-03T12:52:37.509Z,101253.97
2022-09-03T12:55:09.009Z,101250.63
2022-09-03T12:57:43.796Z,101249.59
2022-09-03T13:00:15.366Z,101255.84
2022-09-03T13:02:51.587Z,101252.44
2022-09-03T13:05:21.920Z,101240.81
2022-09-03T13:07:54.616Z,101249.66
2022-09-03T13:10:33.977Z,101238.31
2022-09-03T13:13:02.852Z,101245.66
2022-09-03T13:15:31.023Z,101238.75
2022-09-03T13:17:57.666Z,101251.59
2022-09-03T13:20:34.980Z,101239.28
2022-09-03T13:23:13.647Z,101234.72
2022-09-03T13:26:00.700Z,101238.69
2022-09-03T13:29:21.258Z,101245.47
2022-09-03T13:31:55.578Z,101231.00
2022-09-03T13:34:40.484Z,101235.72
2022-09-03T13:37:26.558Z,101242.25
2022-09-03T13:40:10.380Z,101236.78
2022-09-03T13:42:41.796Z,101233.72
2022-09-03T13:45:17.643Z,101238.78
2022-09-03T13:48:11.427Z,101230.66
2022-09-03T13:50:44.061Z,101224.84
2022-09-03T13:53:48.623Z,101228.38
2022-09-03T13:56:49.351Z,101225.13
2022-09-03T13:59:34.407Z,101220.47
2022-09-03T14:02:13.244Z,101217.03
2022-09-03T14:05:05.272Z,101219.63
2022-09-03T14:07:44.604Z,101215.44
2022-09-03T14:10:14.261Z,101209.06
2022-09-03T14:12:46.917Z,101210.81
2022-09-03T14:15:18.794Z,101209.72
2022-09-03T14:18:00.868Z,101207.94
2022-09-03T14:20:47.615Z,101210.19
2022-09-03T14:23:35.026Z,101204.41
2022-09-03T14:26:05.570Z,101198.28
2022-09-03T14:28:40.287Z,101204.59
2022-09-03T14:31:25.495Z,101209.22
2022-09-03T14:34:11.327Z,101201.63
2022-09-03T14:36:49.673Z,101203.97
2022-09-03T14:39:43.865Z,101202.97
2022-09-03T14:42:42.796Z,101198.94
2022-09-03T14:45:29.159Z,101189.84
2022-09-03T14:47:58.495Z,101196.16
2022-09-03T14:50:28.187Z,101198.22
2022-09-03T14:53:14.592Z,101205.34
2022-09-03T14:56:13.245Z,101197.78
2022-09-03T14:59:11.096Z,101192.56
2022-09-03T15:01:39.146Z,101192.53
2022-09-03T15:04:29.524Z,101194.19
2022-09-03T15:07:33.165Z,101192.06
2022-09-03T15:10:21.333Z,101187.44
2022-09-03T15:13:10.785Z,101189.78
2022-09-03T15:15:40.548Z,101189.78
2022-09-03T15:18:41.072Z,101180.38
2022-09-03T15:21:42.924Z,101179.41
2022-09-03T15:24:24.668Z,101175.34
2022-09-03T15:27:06.189Z,101182.19
2022-09-03T15:29:44.417Z,101189.00
2022-09-03T15:32:41.705Z,101188.06
2022-09-03T15:35:14.391Z,101194.06
2022-09-03T15:37:57.883Z,101196.25
2022-09-03T15:40:39.251Z,101197.09
2022-09-03T15:43:16.139Z,101199.63
2022-09-03T15:45:48.730Z,101204.44
2022-09-03T15:48:30.570Z,101200.13
2022-09-03T15:51:03.188Z,101203.13
2022-09-03T15:53:36.990Z,101206.63
2022-09-03T15:56:15.668Z,101203.13
2022-09-03T15:59:09.988Z,101207.13
2022-09-03T16:01:57.966Z,101202.97
2022-09-03T16:04:44.872Z,101200.13
2022-09-03T16:07:26.568Z,101199.78
2022-09-03T16:10:25.425Z,101197.13
2022-09-03T16:13:23.648Z,101198.78
2022-09-03T16:16:00.860Z,101191.44
2022-09-03T16:18:36.939Z,101192.59
2022-09-03T16:21:06.905Z,101195.59
2022-09-03T16:23:43.667Z,101188.03
2022-09-03T16:26:36.502Z,101200.88
2022-09-03T16:29:09.510Z,101200.00
2022-09-03T16:32:10.471Z,101199.94
2022-09-03T16:34:42.859Z,101202.25
2022-09-03T16:37:46.781Z,101198.22
2022-09-03T16:40:31.964Z,101205.84
2022-09-03T16:43:41.217Z,101195.28
2022-09-03T16:46:28.864Z,101199.59
2022-09-03T16:49:19.124Z,101201.25
2022-09-03T16:52:10.899Z,101197.25
2022-09-03T16:54:57.099Z,101192.06
2022-09-03T16:57:44.394Z,101194.34
2022-09-03T17:00:16.237Z,101196.94
2022-09-03T17:02:48.722Z,101197.94
2022-09-03T17:05:46.377Z,101201.44
2022-09-03T17:08:38.833Z,101199.94
2022-09-03T17:11:12.004Z,101202.84
2022-09-03T17:14:04.060Z,101200.91
2022-09-03T17:17:00.235Z,101210.06
2022-09-03T17:19:39.391Z,101198.16
2022-09-03T17:22:06.089Z,101212.44
2022-09-03T17:24:47.863Z,101197.13
2022-09-03T17:27:38.777Z,101204.03
2022-09-03T17:30:27.566Z,101202.31
2022-09-03T17:33:14.733Z,101208.00
2022-09-03T17:35:58.605Z,101202.88
2022-09-03T17:38:45.452Z,101200.50
2022-09-03T17:41:47.358Z,101205.09
2022-09-03T17:44:21.643Z,101207.06
2022-09-03T17:47:06.751Z,101208.28
2022-09-03T17:49:45.091Z,101219.56
2022-09-03T17:52:37.313Z,101217.72
2022-09-03T17:55:34.110Z,101213.75
2022-09-03T17:58:06.709Z,101212.72
2022-09-03T18:00:42.023Z,101220.72
2022-09-03T18:03:32.893Z,101222.47
2022-09-03T18:06:09.134Z,101231.97
2022-09-03T18:08:48.964Z,101228.38
2022-09-03T18:11:29.217Z,101231.44
2022-09-03T18:14:19.583Z,101239.03
2022-09-03T18:16:55.952Z,101244.47
2022-09-03T18:19:31.451Z,101247.41
2022-09-03T18:22:20.951Z,101245.59
2022-09-03T18:25:13.250Z,101245.63
2022-09-03T18:28:04.674Z,101249.38
2022-09-03T18:30:52.626Z,101251.88
2022-09-03T18:33:44.143Z,101246.31
2022-09-03T18:36:30.964Z,101248.09
2022-09-03T18:39:26.651Z,101252.06
2022-09-03T18:42:17.776Z,101253.66
2022-09-03T18:45:47.793Z,101250.50
2022-09-03T18:48:42.958Z,101254.16
2022-09-03T18:51:48.444Z,101255.28
2022-09-03T18:55:06.789Z,101257.94
2022-09-03T18:58:31.447Z,101264.50
2022-09-03T19:01:55.157Z,101265.91
2022-09-03T19:05:11.573Z,101258.09
2022-09-03T19:08:20.502Z,101265.06
2022-09-03T19:11:16.245Z,101256.53
2022-09-03T19:14:01.488Z,101263.47
2022-09-03T19:17:10.626Z,101263.59
2022-09-03T19:20:30.213Z,101258.16
2022-09-03T19:23:15.423Z,101251.34
2022-09-03T19:26:01.292Z,101258.88
2022-09-03T19:28:53.269Z,101264.69
2022-09-03T19:31:54.887Z,101259.13
2022-09-03T19:35:11.956Z,101262.75
2022-09-03T19:38:12.280Z,101267.06
2022-09-03T19:41:32.601Z,101271.16
2022-09-03T19:44:52.931Z,101264.44
2022-09-03T19:48:03.093Z,101274.91
2022-09-03T19:50:55.824Z,101269.59
2022-09-03T19:53:42.547Z,101277.28
2022-09-03T19:56:48.558Z,101276.31
2022-09-03T19:59:39.393Z,101274.91
2022-09-03T20:02:24.803Z,101273.69
2022-09-03T20:05:16.762Z,101282.44
2022-09-03T20:08:04.505Z,101281.09
2022-09-03T20:10:32.137Z,101284.31
2022-09-03T20:13:13.439Z,101291.44
2022-09-03T20:16:04.498Z,101291.84
2022-09-03T20:18:37.095Z,101287.94
2022-09-03T20:21:37.722Z,101286.69
2022-09-03T20:24:46.288Z,101294.63
2022-09-03T20:27:42.384Z,101291.56
2022-09-03T20:30:15.795Z,101300.66
2022-09-03T20:33:11.692Z,101300.50
2022-09-03T20:36:01.883Z,101304.94
2022-09-03T20:38:58.040Z,101301.69
2022-09-03T20:42:12.194Z,101300.75
2022-09-03T20:44:47.670Z,101301.00
2022-09-03T20:47:29.069Z,101301.59
2022-09-03T20:49:57.564Z,101307.81
2022-09-03T20:52:33.688Z,101304.06
2022-09-03T20:55:28.084Z,101306.69
2022-09-03T20:58:05.776Z,101305.69
2022-09-03T21:00:48.131Z,101302.03
2022-09-03T21:03:35.921Z,101308.22
2022-09-03T21:06:08.736Z,101311.94
2022-09-03T21:08:41.290Z,101313.88
2022-09-03T21:11:14.681Z,101319.72
2022-09-03T21:13:56.381Z,101309.22
2022-09-03T21:16:41.788Z,101308.53
2022-09-03T21:19:22.107Z,101309.19
2022-09-03T21:22:17.404Z,101316.34
2022-09-03T21:24:59.376Z,101316.34
2022-09-03T21:27:50.179Z,101315.53
2022-09-03T21:30:19.854Z,101314.19
2022-09-03T21:33:03.079Z,101311.75
2022-09-03T21:35:54.839Z,101315.25
2022-09-03T21:38:28.141Z,101326.22
2022-09-03T21:41:17.211Z,101331.22
2022-09-03T21:43:46.843Z,101327.94
2022-09-03T21:46:33.676Z,101335.13
2022-09-03T21:49:06.429Z,101338.09
2022-09-03T21:51:44.495Z,101332.34
2022-09-03T21:54:21.660Z,101335.22
2022-09-03T21:57:02.316Z,101338.25
2022-09-03T21:59:51.753Z,101331.34
2022-09-03T22:02:27.160Z,101334.38
2022-09-03T22:04:55.301Z,101339.16
2022-09-03T22:07:40.980Z,101340.00
2022-09-03T22:10:28.637Z,101345.97
2022-09-03T22:13:14.985Z,101345.56
2022-09-03T22:15:50.691Z,101347.53
2022-09-03T22:18:28.930Z,101348.78
2022-09-03T22:21:12.753Z,101348.47
2022-09-03T22:23:58.186Z,101344.69
2022-09-03T22:26:45.831Z,101346.75
2022-09-03T22:29:25.401Z,101353.78
2022-09-03T22:32:03.760Z,101350.06
2022-09-03T22:34:36.278Z,101355.00
2022-09-03T22:37:06.691Z,101357.38
2022-09-03T22:39:36.637Z,101355.25
2022-09-03T22:42:24.628Z,101363.31
2022-09-03T22:44:53.885Z,101356.25
2022-09-03T22:47:51.445Z,101356.88
2022-09-03T22:50:24.846Z,101368.78
2022-09-03T22:53:15.748Z,101370.59
2022-09-03T22:55:50.901Z,101368.91
2022-09-03T22:58:28.853Z,101367.47
2022-09-03T23:01:34.808Z,101374.09
2022-09-03T23:04:20.184Z,101376.25
2022-09-03T23:07:04.213Z,101368.44
2022-09-03T23:09:38.193Z,101370.84
2022-09-03T23:12:14.823Z,101377.13
2022-09-03T23:14:51.561Z,101385.00
2022-09-03T23:22:37.544Z,101378.88
2022-09-03T23:25:21.251Z,101387.88
2022-09-03T23:28:02.207Z,101395.78
2022-09-03T23:30:28.960Z,101386.91
2022-09-03T23:32:58.427Z,101386.19
2022-09-03T23:35:31.222Z,101385.25
2022-09-03T23:38:15.234Z,101389.22
2022-09-03T23:40:47.532Z,101383.44
2022-09-03T23:43:37.415Z,101385.25
2022-09-03T23:46:16.521Z,101384.88
2022-09-03T23:48:43.208Z,101379.56
2022-09-03T23:51:33.188Z,101387.25
2022-09-03T23:54:02.820Z,101394.09
2022-09-03T23:56:32.095Z,101385.22
2022-09-03T23:59:13.928Z,101394.50
